createdAt,value
2022-08-04T00:02:18.926Z,99431.72
2022-08-04T00:04:53.729Z,99442.38
2022-08-04T00:07:44.991Z,99438.81
2022-08-04T00:10:18.165Z,99434.94
2022-08-04T00:12:51.099Z,99429.13
2022-08-04T00:15:19.577Z,99436.88
2022-08-04T00:17:54.855Z,99431.72
2022-08-04T00:20:23.503Z,99440.75
2022-08-04T00:22:53.032Z,99435.75
2022-08-04T00:25:20.189Z,99431.72
2022-08-04T00:27:47.768Z,99422.00
2022-08-04T00:30:14.784Z,99433.94
2022-08-04T00:32:42.545Z,99433.13
2022-08-04T00:35:13.064Z,99438.63
2022-08-04T00:37:42.786Z,99430.38
2022-08-04T00:40:50.316Z,99441.53
2022-08-04T00:43:56.461Z,99436.66
2022-08-04T00:47:08.691Z,99427.44
2022-08-04T00:50:08.268Z,99438.59
2022-08-04T00:52:47.104Z,99436.97
2022-08-04T00:56:07.113Z,99438.69
2022-08-04T00:58:43.888Z,99436.28
2022-08-04T01:02:08.620Z,99437.22
2022-08-04T01:05:28.379Z,99437.88
2022-08-04T01:08:43.474Z,99437.06
2022-08-04T01:11:29.273Z,99442.53
2022-08-04T01:14:32.324Z,99438.00
2022-08-04T01:17:21.791Z,99441.34
2022-08-04T01:19:57.743Z,99438.13
2022-08-04T01:22:33.549Z,99439.75
2022-08-04T01:25:19.912Z,99439.59
2022-08-04T01:28:42.882Z,99444.25
2022-08-04T01:31:47.117Z,99446.31
2022-08-04T01:34:15.997Z,99438.41
2022-08-04T01:36:55.222Z,99434.81
2022-08-04T01:39:41.377Z,99442.53
2022-08-04T01:42:11.389Z,99432.81
2022-08-04T01:44:41.394Z,99433.97
2022-08-04T01:47:09.840Z,99429.59
2022-08-04T01:49:40.427Z,99434.09
2022-08-04T01:52:10.188Z,99423.09
2022-08-04T01:54:42.612Z,99420.03
2022-08-04T01:57:38.552Z,99420.84
2022-08-04T02:00:04.883Z,99432.16
2022-08-04T02:02:32.247Z,99417.81
2022-08-04T02:04:59.387Z,99435.88
2022-08-04T02:07:45.201Z,99425.09
2022-08-04T02:10:29.175Z,99417.38
2022-08-04T02:13:33.112Z,99421.53
2022-08-04T02:16:21.485Z,99409.75
2022-08-04T02:19:03.300Z,99411.38
2022-08-04T02:21:42.259Z,99408.91
2022-08-04T02:24:19.663Z,99407.09
2022-08-04T02:26:53.332Z,99407.50
2022-08-04T02:29:34.401Z,99408.66
2022-08-04T02:32:07.001Z,99407.84
2022-08-04T02:34:51.236Z,99409.75
2022-08-04T02:37:20.778Z,99412.00
2022-08-04T02:39:53.872Z,99409.91
2022-08-04T02:42:21.278Z,99412.28
2022-08-04T02:44:52.300Z,99405.84
2022-08-04T02:47:24.609Z,99404.63
2022-08-04T02:50:14.424Z,99403.72
2022-08-04T02:53:00.496Z,99404.78
2022-08-04T02:55:29.994Z,99398.91
2022-08-04T02:58:00.204Z,99395.28
2022-08-04T03:00:27.863Z,99392.44
2022-08-04T03:03:16.675Z,99405.25
2022-08-04T03:06:11.297Z,99398.16
2022-08-04T03:09:24.023Z,99393.91
2022-08-04T03:12:20.004Z,99396.09
2022-08-04T03:15:24.116Z,99400.34
2022-08-04T03:18:15.324Z,99403.47
2022-08-04T03:21:24.183Z,99400.34
2022-08-04T03:24:47.041Z,99402.19
2022-08-04T03:27:51.190Z,99397.81
2022-08-04T03:30:42.868Z,99386.56
2022-08-04T03:33:37.861Z,99405.41
2022-08-04T03:36:43.514Z,99391.63
2022-08-04T03:39:28.743Z,99402.81
2022-08-04T03:42:04.076Z,99404.59
2022-08-04T03:45:24.834Z,99405.63
2022-08-04T03:48:13.804Z,99404.00
2022-08-04T03:51:35.159Z,99403.78
2022-08-04T03:54:27.656Z,99401.38
2022-08-04T03:57:15.728Z,99403.78
2022-08-04T04:00:07.810Z,99399.22
2022-08-04T04:03:28.769Z,99404.09
2022-08-04T04:06:53.791Z,99402.81
2022-08-04T04:09:56.752Z,99406.22
2022-08-04T04:12:49.039Z,99406.03
2022-08-04T04:15:53.487Z,99405.81
2022-08-04T04:18:50.074Z,99409.16
2022-08-04T04:21:54.329Z,99407.84
2022-08-04T04:24:52.742Z,99408.13
2022-08-04T04:27:57.163Z,99415.84
2022-08-04T04:30:56.959Z,99417.78
2022-08-04T04:33:52.402Z,99406.34
2022-08-04T04:36:49.104Z,99417.56
2022-08-04T04:39:32.767Z,99416.75
2022-08-04T04:42:48.844Z,99420.59
2022-08-04T04:46:00.170Z,99422.84
2022-08-04T04:48:57.238Z,99422.59
2022-08-04T04:51:50.655Z,99427.06
2022-08-04T04:54:43.821Z,99426.84
2022-08-04T04:57:18.572Z,99433.13
2022-08-04T05:00:05.760Z,99428.28
2022-08-04T05:03:18.893Z,99433.75
2022-08-04T05:06:28.263Z,99439.72
2022-08-04T05:09:52.179Z,99438.41
2022-08-04T05:14:32.885Z,99440.84
2022-08-04T05:15:25.489Z,99435.44
2022-08-04T05:17:56.850Z,99445.66
2022-08-04T05:20:40.806Z,99443.22
2022-08-04T05:23:13.304Z,99441.00
2022-08-04T05:25:40.167Z,99449.19
2022-08-04T05:28:30.027Z,99453.06
2022-08-04T05:31:06.170Z,99459.63
2022-08-04T05:33:42.851Z,99456.41
2022-08-04T05:36:33.013Z,99462.66
2022-08-04T05:39:13.127Z,99454.16
2022-08-04T05:41:46.328Z,99450.22
2022-08-04T05:44:23.738Z,99453.69
2022-08-04T05:46:55.995Z,99453.00
2022-08-04T05:49:28.855Z,99452.50
2022-08-04T05:52:03.794Z,99451.00
2022-08-04T05:54:34.232Z,99458.09
2022-08-04T05:57:07.031Z,99456.88
2022-08-04T05:59:39.339Z,99458.75
2022-08-04T06:02:09.490Z,99463.81
2022-08-04T06:04:41.123Z,99471.91
2022-08-04T06:07:11.183Z,99465.22
2022-08-04T06:09:38.808Z,99473.56
2022-08-04T06:12:25.225Z,99464.41
2022-08-04T06:14:59.313Z,99460.44
2022-08-04T06:19:56.436Z,99466.03
2022-08-04T06:20:37.305Z,99451.09
2022-08-04T06:23:15.657Z,99456.06
2022-08-04T06:25:57.132Z,99464.97
2022-08-04T06:28:25.919Z,99471.66
2022-08-04T06:30:55.567Z,99467.06
2022-08-04T06:33:54.928Z,99465.38
2022-08-04T06:36:22.527Z,99468.97
2022-08-04T06:38:58.539Z,99477.72
2022-08-04T06:41:28.856Z,99473.75
2022-08-04T06:44:01.693Z,99477.50
2022-08-04T06:46:30.558Z,99472.91
2022-08-04T06:48:58.204Z,99477.94
2022-08-04T06:51:36.241Z,99474.78
2022-08-04T06:54:08.290Z,99482.91
2022-08-04T06:56:36.870Z,99483.28
2022-08-04T06:59:04.715Z,99480.41
2022-08-04T07:01:32.719Z,99482.22
2022-08-04T07:04:00.392Z,99481.78
2022-08-04T07:06:27.800Z,99490.34
2022-08-04T07:08:56.377Z,99484.75
2022-08-04T07:11:24.885Z,99483.19
2022-08-04T07:13:52.338Z,99486.44
2022-08-04T07:16:21.822Z,99480.66
2022-08-04T07:18:58.192Z,99482.28
2022-08-04T07:21:37.525Z,99476.47
2022-08-04T07:24:05.027Z,99480.06
2022-08-04T07:26:32.069Z,99475.88
2022-08-04T07:28:59.663Z,99475.13
2022-08-04T07:31:34.199Z,99468.84
2022-08-04T07:34:17.224Z,99480.97
2022-08-04T07:36:55.544Z,99476.59
2022-08-04T07:39:30.145Z,99470.31
2022-08-04T07:42:01.167Z,99477.28
2022-08-04T07:44:33.581Z,99479.53
2022-08-04T07:47:03.579Z,99475.31
2022-08-04T07:49:54.257Z,99482.59
2022-08-04T07:52:18.066Z,99475.94
2022-08-04T07:54:45.559Z,99482.72
2022-08-04T07:57:19.508Z,99487.72
2022-08-04T07:59:59.620Z,99491.75
2022-08-04T08:02:27.102Z,99487.41
2022-08-04T08:04:54.349Z,99484.13
2022-08-04T08:07:21.636Z,99496.53
2022-08-04T08:09:48.885Z,99487.13
2022-08-04T08:12:37.544Z,99489.72
2022-08-04T08:15:05.640Z,99487.94
2022-08-04T08:17:58.878Z,99488.69
2022-08-04T08:20:29.894Z,99482.78
2022-08-04T08:22:58.363Z,99482.72
2022-08-04T08:25:25.458Z,99482.19
2022-08-04T08:27:56.006Z,99469.03
2022-08-04T08:30:25.203Z,99480.28
2022-08-04T08:33:14.867Z,99485.75
2022-08-04T08:35:54.824Z,99474.84
2022-08-04T08:38:50.979Z,99483.81
2022-08-04T08:42:05.068Z,99475.09
2022-08-04T08:45:03.197Z,99479.41
2022-08-04T08:48:05.279Z,99487.66
2022-08-04T08:51:18.273Z,99475.47
2022-08-04T08:54:11.458Z,99483.00
2022-08-04T08:57:14.885Z,99480.84
2022-08-04T09:00:12.041Z,99487.28
2022-08-04T09:03:35.737Z,99487.06
2022-08-04T09:06:27.912Z,99481.31
2022-08-04T09:09:36.455Z,99485.47
2022-08-04T09:12:53.562Z,99485.47
2022-08-04T09:16:16.433Z,99489.88
2022-08-04T09:19:38.595Z,99489.91
2022-08-04T09:22:28.346Z,99490.03
2022-08-04T09:25:11.062Z,99482.41
2022-08-04T09:28:11.235Z,99481.03
2022-08-04T09:30:49.027Z,99480.44
2022-08-04T09:33:44.569Z,99487.13
2022-08-04T09:36:35.954Z,99486.44
2022-08-04T09:39:37.021Z,99493.31
2022-08-04T09:42:29.338Z,99483.41
2022-08-04T09:45:26.567Z,99480.56
2022-08-04T09:48:09.989Z,99477.69
2022-08-04T09:50:50.038Z,99473.97
2022-08-04T09:54:30.619Z,99474.97
2022-08-04T09:57:29.867Z,99476.78
2022-08-04T10:00:10.901Z,99470.94
2022-08-04T10:02:56.928Z,99471.56
2022-08-04T10:05:36.743Z,99466.47
2022-08-04T10:08:23.088Z,99458.81
2022-08-04T10:11:21.373Z,99460.78
2022-08-04T10:14:02.607Z,99469.75
2022-08-04T10:17:01.353Z,99464.38
2022-08-04T10:19:35.033Z,99458.19
2022-08-04T10:22:40.604Z,99457.59
2022-08-04T10:26:06.994Z,99458.94
2022-08-04T10:28:46.368Z,99453.09
2022-08-04T10:31:29.547Z,99448.97
2022-08-04T10:34:27.684Z,99448.91
2022-08-04T10:37:55.361Z,99450.53
2022-08-04T10:40:36.624Z,99445.03
2022-08-04T10:43:29.211Z,99443.44
2022-08-04T10:46:02.209Z,99434.75
2022-08-04T10:48:50.534Z,99437.59
2022-08-04T10:51:57.753Z,99431.72
2022-08-04T10:55:06.831Z,99437.75
2022-08-04T10:57:52.483Z,99430.84
2022-08-04T11:00:26.683Z,99433.31
2022-08-04T11:02:58.600Z,99433.13
2022-08-04T11:05:52.176Z,99434.31
2022-08-04T11:08:35.512Z,99438.53
2022-08-04T11:11:21.349Z,99430.03
2022-08-04T11:14:04.840Z,99426.13
2022-08-04T11:16:57.644Z,99420.69
2022-08-04T11:20:31.788Z,99425.97
2022-08-04T11:23:04.951Z,99427.94
2022-08-04T11:26:03.684Z,99428.69
2022-08-04T11:29:03.617Z,99428.41
2022-08-04T11:31:40.589Z,99426.50
2022-08-04T11:34:24.852Z,99425.44
2022-08-04T11:37:14.947Z,99437.84
2022-08-04T11:40:04.059Z,99426.38
2022-08-04T11:42:43.044Z,99429.66
2022-08-04T11:45:19.753Z,99417.38
2022-08-04T11:48:12.720Z,99412.38
2022-08-04T11:50:45.052Z,99412.78
2022-08-04T11:53:19.462Z,99411.81
2022-08-04T11:56:07.401Z,99423.09
2022-08-04T11:58:37.361Z,99415.34
2022-08-04T12:01:39.620Z,99410.66
2022-08-04T12:04:45.249Z,99409.50
2022-08-04T12:08:04.009Z,99409.03
2022-08-04T12:10:53.828Z,99411.50
2022-08-04T12:13:58.713Z,99402.88
2022-08-04T12:16:59.065Z,99398.09
2022-08-04T12:20:05.261Z,99394.16
2022-08-04T12:22:45.835Z,99395.75
2022-08-04T12:25:27.504Z,99380.28
2022-08-04T12:28:05.397Z,99387.94
2022-08-04T12:30:58.255Z,99388.47
2022-08-04T12:34:03.645Z,99387.34
2022-08-04T12:36:31.575Z,99381.72
2022-08-04T12:39:18.887Z,99380.28
2022-08-04T12:42:01.328Z,99389.91
2022-08-04T12:44:42.768Z,99389.09
2022-08-04T12:47:27.887Z,99390.25
2022-08-04T12:50:02.885Z,99379.50
2022-08-04T12:53:05.159Z,99377.09
2022-08-04T12:55:35.113Z,99377.19
2022-08-04T12:58:42.898Z,99381.56
2022-08-04T13:02:10.270Z,99376.44
2022-08-04T13:04:11.079Z,99377.19
2022-08-04T13:06:41.187Z,99381.09
2022-08-04T13:09:18.532Z,99374.00
2022-08-04T13:11:59.154Z,99368.44
2022-08-04T13:14:35.222Z,99366.88
2022-08-04T13:17:02.490Z,99363.75
2022-08-04T13:19:31.098Z,99357.44
2022-08-04T13:22:03.015Z,99353.44
2022-08-04T13:24:37.585Z,99358.69
2022-08-04T13:27:23.651Z,99349.94
2022-08-04T13:30:00.674Z,99348.75
2022-08-04T13:32:31.689Z,99350.00
2022-08-04T13:35:01.661Z,99343.16
2022-08-04T13:37:36.690Z,99330.47
2022-08-04T13:40:10.382Z,99338.06
2022-08-04T13:42:38.873Z,99334.09
2022-08-04T13:45:08.718Z,99333.72
2022-08-04T13:47:40.104Z,99320.91
2022-08-04T13:50:27.395Z,99314.88
2022-08-04T13:52:57.425Z,99324.03
2022-08-04T13:55:26.087Z,99310.06
2022-08-04T13:58:11.060Z,99315.28
2022-08-04T14:00:45.341Z,99312.09
2022-08-04T14:03:29.036Z,99311.31
2022-08-04T14:06:42.837Z,99296.75
2022-08-04T14:09:16.992Z,99306.44
2022-08-04T14:12:10.825Z,99298.88
2022-08-04T14:14:53.724Z,99296.88
2022-08-04T14:17:29.940Z,99293.72
2022-08-04T14:19:59.935Z,99292.91
2022-08-04T14:22:26.892Z,99292.97
2022-08-04T14:25:16.922Z,99280.16
2022-08-04T14:27:53.780Z,99276.03
2022-08-04T14:30:35.415Z,99268.97
2022-08-04T14:34:02.662Z,99277.34
2022-08-04T14:36:04.198Z,99268.16
2022-08-04T14:38:45.332Z,99281.75
2022-08-04T14:41:13.497Z,99263.75
2022-08-04T14:44:05.077Z,99267.38
2022-08-04T14:46:51.645Z,99265.38
2022-08-04T14:49:19.308Z,99259.41
2022-08-04T14:51:57.312Z,99261.00
2022-08-04T14:54:35.375Z,99261.78
2022-08-04T14:57:10.105Z,99256.19
2022-08-04T14:59:41.690Z,99251.81
2022-08-04T15:02:29.990Z,99254.13
2022-08-04T15:04:59.100Z,99258.19
2022-08-04T15:07:26.797Z,99256.59
2022-08-04T15:09:54.652Z,99252.22
2022-08-04T15:12:22.759Z,99249.81
2022-08-04T15:14:49.935Z,99249.44
2022-08-04T15:17:30.227Z,99249.03
2022-08-04T15:19:58.280Z,99246.63
2022-08-04T15:22:25.557Z,99247.44
2022-08-04T15:24:55.609Z,99243.34
2022-08-04T15:27:28.505Z,99245.81
2022-08-04T15:30:02.842Z,99253.00
2022-08-04T15:33:05.874Z,99238.22
2022-08-04T15:35:39.312Z,99241.88
2022-08-04T15:39:04.328Z,99234.66
2022-08-04T15:41:54.725Z,99240.56
2022-08-04T15:44:37.262Z,99241.75
2022-08-04T15:47:06.508Z,99234.94
2022-08-04T15:49:33.696Z,99236.94
2022-08-04T15:52:12.443Z,99239.28
2022-08-04T15:55:38.762Z,99224.59
2022-08-04T15:58:13.636Z,99226.59
2022-08-04T16:01:03.467Z,99224.28
2022-08-04T16:04:00.230Z,99223.47
2022-08-04T16:06:22.911Z,99225.88
2022-08-04T16:08:58.747Z,99222.69
2022-08-04T16:11:43.756Z,99215.53
2022-08-04T16:14:11.180Z,99212.31
2022-08-04T16:16:38.458Z,99206.75
2022-08-04T16:20:01.571Z,99203.94
2022-08-04T16:22:43.048Z,99202.75
2022-08-04T16:25:11.017Z,99201.94
2022-08-04T16:28:07.172Z,99195.97
2022-08-04T16:30:41.049Z,99204.31
2022-08-04T16:33:09.400Z,99192.00
2022-08-04T16:35:42.271Z,99199.56
2022-08-04T16:38:15.301Z,99199.50
2022-08-04T16:40:45.758Z,99187.88
2022-08-04T16:43:18.444Z,99191.88
2022-08-04T16:45:49.836Z,99196.34
2022-08-04T16:48:23.388Z,99192.78
2022-08-04T16:51:10.178Z,99189.88
2022-08-04T16:54:04.285Z,99185.06
2022-08-04T16:56:35.300Z,99182.66
2022-08-04T16:59:11.419Z,99183.50
2022-08-04T17:01:47.820Z,99183.53
2022-08-04T17:04:15.083Z,99187.53
2022-08-04T17:06:46.217Z,99178.38
2022-08-04T17:09:18.865Z,99172.84
2022-08-04T17:11:47.835Z,99177.91
2022-08-04T17:14:31.373Z,99178.75
2022-08-04T17:17:01.459Z,99177.56
2022-08-04T17:19:28.635Z,99179.06
2022-08-04T17:22:05.019Z,99169.13
2022-08-04T17:24:38.771Z,99176.72
2022-08-04T17:28:09.909Z,99178.72
2022-08-04T17:29:54.802Z,99175.53
2022-08-04T17:32:23.628Z,99188.28
2022-08-04T17:34:57.172Z,99173.13
2022-08-04T17:37:40.673Z,99175.50
2022-08-04T17:40:22.548Z,99167.78
2022-08-04T17:44:01.377Z,99174.50
2022-08-04T17:46:30.059Z,99170.09
2022-08-04T17:49:12.309Z,99173.22
2022-08-04T17:52:05.733Z,99167.56
2022-08-04T17:54:39.097Z,99175.06
2022-08-04T17:57:22.234Z,99167.31
2022-08-04T17:59:59.456Z,99165.66
2022-08-04T18:05:54.004Z,99173.28
2022-08-04T18:08:39.724Z,99159.66
2022-08-04T18:11:04.814Z,99168.38
2022-08-04T18:13:42.650Z,99173.28
2022-08-04T18:16:22.759Z,99168.00
2022-08-04T18:19:14.595Z,99169.63
2022-08-04T18:21:46.797Z,99169.88
2022-08-04T18:24:35.586Z,99172.06
2022-08-04T18:27:30.036Z,99179.25
2022-08-04T18:30:34.287Z,99173.50
2022-08-04T18:33:24.531Z,99176.38
2022-08-04T18:36:32.465Z,99181.28
2022-08-04T18:38:23.280Z,99180.66
2022-08-04T18:40:53.055Z,99182.06
2022-08-04T18:43:28.245Z,99183.19
2022-08-04T18:45:59.458Z,99184.47
2022-08-04T18:48:36.806Z,99180.94
2022-08-04T18:51:10.227Z,99183.00
2022-08-04T18:53:55.332Z,99178.19
2022-08-04T18:56:31.566Z,99182.72
2022-08-04T18:59:01.644Z,99180.59
2022-08-04T19:02:15.989Z,99186.47
2022-08-04T19:04:32.192Z,99182.31
2022-08-04T19:07:28.717Z,99190.09
2022-08-04T19:09:51.147Z,99202.16
2022-08-04T19:12:26.965Z,99184.03
2022-08-04T19:15:08.445Z,99189.94
2022-08-04T19:17:53.808Z,99206.00
2022-08-04T19:20:26.711Z,99200.91
2022-08-04T19:24:27.807Z,99194.56
2022-08-04T19:28:36.552Z,99204.63
2022-08-04T19:31:07.051Z,99209.19
2022-08-04T19:33:58.867Z,99212.28
2022-08-04T19:36:27.923Z,99210.69
2022-08-04T19:39:09.181Z,99211.22
2022-08-04T19:42:04.347Z,99212.91
2022-08-04T19:44:29.935Z,99220.84
2022-08-04T19:47:00.784Z,99214.41
2022-08-04T19:50:05.232Z,99223.69
2022-08-04T19:52:34.186Z,99223.88
2022-08-04T19:57:52.435Z,99227.69
2022-08-04T20:00:33.346Z,99223.19
2022-08-04T20:03:11.737Z,99223.09
2022-08-04T20:08:32.731Z,99224.50
2022-08-04T20:11:00.435Z,99222.72
2022-08-04T20:13:37.142Z,99215.47
2022-08-04T20:16:28.897Z,99217.00
2022-08-04T20:18:55.488Z,99219.28
2022-08-04T20:21:29.603Z,99226.56
2022-08-04T20:24:37.725Z,99224.88
2022-08-04T20:26:59.960Z,99225.94
2022-08-04T20:29:40.395Z,99229.06
2022-08-04T20:32:09.582Z,99232.72
2022-08-04T20:34:38.206Z,99226.28
2022-08-04T20:37:10.141Z,99233.66
2022-08-04T20:39:38.135Z,99234.34
2022-08-04T20:42:06.495Z,99231.13
2022-08-04T20:44:33.754Z,99232.63
2022-08-04T20:47:01.607Z,99235.63
2022-08-04T20:49:35.394Z,99230.91
2022-08-04T20:52:13.245Z,99226.97
2022-08-04T20:54:48.359Z,99233.31
2022-08-04T20:57:16.901Z,99232.06
2022-08-04T20:59:57.771Z,99224.59
2022-08-04T21:02:27.646Z,99230.91
2022-08-04T21:04:55.004Z,99226.97
2022-08-04T21:07:24.133Z,99227.69
2022-08-04T21:09:52.087Z,99228.84
2022-08-04T21:12:28.613Z,99233.22
2022-08-04T21:15:13.548Z,99229.66
2022-08-04T21:17:58.931Z,99231.25
2022-08-04T21:20:31.365Z,99243.13
2022-08-04T21:23:02.252Z,99236.06
2022-08-04T21:25:30.925Z,99235.38
2022-08-04T21:27:58.761Z,99242.63
2022-08-04T21:30:27.047Z,99251.41
2022-08-04T21:32:55.176Z,99250.69
2022-08-04T21:35:36.898Z,99243.44
2022-08-04T21:38:17.077Z,99248.41
2022-08-04T21:41:01.499Z,99240.81
2022-08-04T21:43:42.322Z,99246.03
2022-08-04T21:46:11.391Z,99248.69
2022-08-04T21:48:39.032Z,99242.13
2022-08-04T21:51:56.775Z,99254.66
2022-08-04T21:54:06.979Z,99261.56
2022-08-04T21:56:34.641Z,99262.03
2022-08-04T21:59:05.753Z,99258.47
2022-08-04T22:01:51.883Z,99255.81
2022-08-04T22:04:19.911Z,99262.03
2022-08-04T22:06:51.807Z,99256.38
2022-08-04T22:09:21.945Z,99262.38
2022-08-04T22:11:51.576Z,99257.97
2022-08-04T22:14:27.212Z,99252.94
2022-08-04T22:16:58.521Z,99247.91
2022-08-04T22:19:54.989Z,99243.34
2022-08-04T22:25:12.340Z,99237.59
2022-08-04T22:28:00.747Z,99238.09
2022-08-04T22:30:33.301Z,99224.66
2022-08-04T22:33:08.151Z,99234.19
2022-08-04T22:35:48.822Z,99243.25
2022-08-04T22:38:24.146Z,99249.22
2022-08-04T22:41:03.338Z,99244.88
2022-08-04T22:43:32.124Z,99237.41
2022-08-04T22:46:05.396Z,99240.16
2022-08-04T22:48:36.108Z,99240.50
2022-08-04T22:51:05.729Z,99245.56
2022-08-04T22:53:34.865Z,99245.88
2022-08-04T22:56:09.327Z,99252.06
2022-08-04T22:58:45.510Z,99251.13
2022-08-04T23:01:18.777Z,99251.81
2022-08-04T23:03:55.156Z,99251.53
2022-08-04T23:06:24.631Z,99252.19
2022-08-04T23:08:52.520Z,99248.03
2022-08-04T23:11:19.557Z,99255.38
2022-08-04T23:13:47.207Z,99272.44
2022-08-04T23:16:17.088Z,99274.09
2022-08-04T23:18:48.887Z,99262.13
2022-08-04T23:21:17.386Z,99264.75
2022-08-04T23:23:55.689Z,99260.22
2022-08-04T23:26:31.565Z,99255.38
2022-08-04T23:28:59.063Z,99253.66
2022-08-04T23:31:40.528Z,99248.00
2022-08-04T23:34:09.106Z,99254.97
2022-08-04T23:36:39.472Z,99246.44
2022-08-04T23:39:07.281Z,99255.69
2022-08-04T23:41:54.729Z,99264.13
2022-08-04T23:44:26.513Z,99286.97
2022-08-04T23:47:01.410Z,99298.16
2022-08-04T23:49:43.492Z,99296.06
2022-08-04T23:52:27.781Z,99309.53
2022-08-04T23:54:59.192Z,99315.84
2022-08-04T23:57:31.406Z,99310.19
